Lucentum, Spain

09:59 AM CEST die 26o April, anno 2017 (GMT +0200)
Macisvenda | | Change Station

Elev 1354 ft 38.27 °N, 1.01 °W | Updated 4 minutes ago

Serena
Serena
69.8 °F
Feels Like 69.8 °F
N
5.0
Ventus Variabilis Ventus from Magis Zephyrus quam Aquilo
Gusts 8.0 mph

Hodie
High -- | Low -- °F
--% Chance of Precip.
Yesterday
High -- | Low -- °F
Precip. -- in
Pressio 29.71 in
Visibilitas -9999.0 milia passuum
Clouds
Frigus in quo Ros apparet 31 °F
Umor 24%
Rainfall 0.00 in
Snow Depth Not available.
7:13 AM 8:50 PM
Waning Crescent, 0% visible
METAR LEAL 260730Z 23004KT 200V260 CAVOK 21/11 Q1006 NOSIG
Pressio 29.71 in
Visibilitas -9999.0 milia passuum
Clouds
Frigus in quo Ros apparet 31 °F
Umor 24%
Rainfall 0.00 in
Snow Depth Not available.
7:13 AM 8:50 PM
Waning Crescent, 0% visible
METAR LEAL 260730Z 23004KT 200V260 CAVOK 21/11 Q1006 NOSIG

Get Severe Weather Alerts

Thanks for signing up!

Be on the lookout for a verification email in your inbox.

You'll start receiving the daily forecast at 8 AM.

×

10-Day Weather Forecast

×

Almanac

Astronomy

Apr. 26, 2017 Rise Set
Actual Time
Civil Twilight
Nautical Twilight
Astronomical Twilight
Moon
Length Of Visible Light
Length of Day
Tomorrow will be .
, % of the Moon is Illuminated

Today's Extremes

Country Highs Country Lows

Community

WunderPhotos

WunderBlog® & News

Nearby

Air Quality

  Air Quality AQ Index Pollutant
Not available.

Snow Depth

Station Depth Elevation

Earthquake Activity

City Distance Mag. Time & Date
Minimum magnitude displayed is 2.5.

Coastal Water Temperatures

Locus Calor

Stations

Nearby Weather Stations

Station Location Temp Frigus Venti Frigus in quo Ros apparet Umor Ventus Precip. Elev Renovata Type